Bookmark and Share
Track history (hours):
 

F/V Fleur Des Vagues

Last reported at 2014-Apr-13 04:15 UTC. Time now 2014-Apr-17 21:45 UTC.
Position N 46°32' W 001°57'.

Length 16 m.

Type: Fishing. MMSI: 227893000.

NotesDate/timePositionNaut miles runAvg speedWind from/ knotsBaromVisibWave heightAir tempDewpointWater temp
2014-Apr-13 04:15N 46°32' W 001°57'0 0.4
2014-Apr-13 03:33N 46°31' W 001°57'2 1.6
2014-Apr-13 02:34N 46°33' W 001°58'1 1.1
2014-Apr-13 01:34N 46°32' W 001°57'1 1.0
2014-Apr-13 00:33N 46°31' W 001°58'0 0.1
2014-Apr-12 23:33N 46°31' W 001°58'0 0.0
2014-Apr-12 22:33N 46°31' W 001°58'0 0.0
2014-Apr-12 21:33N 46°31' W 001°58'0 0.0
2014-Apr-12 20:34N 46°31' W 001°58'0 0.1
2014-Apr-12 19:34N 46°31' W 001°58'0 0.0
2014-Apr-12 18:34N 46°31' W 001°58'0 0.0
2014-Apr-12 17:33N 46°31' W 001°58'0 0.0
2014-Apr-12 16:33N 46°31' W 001°58'0 0.0
2014-Apr-12 15:33N 46°31' W 001°58'0 0.0
2014-Apr-12 14:34N 46°31' W 001°58'0 0.0
2014-Apr-12 13:33N 46°31' W 001°58'2 1.5
2014-Apr-12 12:33N 46°33' W 001°58'1 0.8
2014-Apr-12 11:34N 46°33' W 001°57'9 8.7
2014-Apr-12 10:33N 46°25' W 001°52'11 1.6
2014-Apr-12 03:34N 46°14' W 001°46'1 0.9
2014-Apr-12 02:33N 46°14' W 001°47'0 0.3
2014-Apr-12 01:33N 46°15' W 001°48'2 1.6
2014-Apr-12 00:31N 46°15' W 001°45'0 0.0
2014-Apr-11 23:34N 46°15' W 001°45'0 0.0
2014-Apr-11 22:33N 46°15' W 001°45'0 0.0
2014-Apr-11 21:34N 46°15' W 001°45'0 0.0
2014-Apr-11 20:34N 46°15' W 001°45'0 0.0
2014-Apr-11 19:33N 46°15' W 001°45'0 0.0
2014-Apr-11 18:33N 46°15' W 001°45'0 0.0
2014-Apr-11 17:33N 46°15' W 001°45'0 0.0
2014-Apr-11 16:33N 46°15' W 001°45'0 0.0
2014-Apr-11 15:33N 46°15' W 001°45'0 0.0
2014-Apr-11 14:33N 46°15' W 001°45'0 0.0
2014-Apr-11 13:33N 46°15' W 001°45'0 0.0
2014-Apr-11 12:32N 46°15' W 001°45'0 0.2
2014-Apr-11 11:33N 46°15' W 001°46'3 2.4
2014-Apr-11 10:30N 46°15' W 001°49'7 7.1
2014-Apr-11 09:34N 46°21' W 001°47'8 8.5
2014-Apr-11 08:34N 46°30' W 001°48'0 0.4
2014-Apr-11 07:33N 46°30' W 001°47'0 0.0
2014-Apr-11 06:34N 46°30' W 001°47'0 0.0
2014-Apr-11 05:34N 46°30' W 001°47'0 0.0
2014-Apr-11 04:33N 46°30' W 001°47'0 0.0
2014-Apr-11 03:34N 46°30' W 001°47'0 0.0
2014-Apr-11 02:34N 46°30' W 001°47'0 0.0
2014-Apr-11 01:34N 46°30' W 001°47'0 0.0
2014-Apr-11 00:34N 46°30' W 001°47'0 0.0
2014-Apr-10 23:34N 46°30' W 001°47'0 0.0
2014-Apr-10 22:34N 46°30' W 001°47'0 0.0
2014-Apr-10 21:33N 46°30' W 001°47'0 0.0
2014-Apr-10 20:34N 46°30' W 001°47'0 0.0
2014-Apr-10 19:33N 46°30' W 001°47'4 4.4
2014-Apr-10 18:34N 46°26' W 001°47'8 8.3
2014-Apr-10 17:33N 46°17' W 001°47'1 1.5
2014-Apr-10 16:33N 46°16' W 001°48'1 0.9
2014-Apr-10 15:33N 46°16' W 001°49'1 0.9
2014-Apr-10 14:33N 46°15' W 001°50'3 2.5
2014-Apr-10 13:31N 46°16' W 001°46'1 1.0
2014-Apr-10 12:33N 46°15' W 001°48'1 0.9
2014-Apr-10 11:33N 46°16' W 001°47'1 1.0
2014-Apr-10 10:33N 46°16' W 001°48'1 0.9
2014-Apr-10 09:33N 46°15' W 001°50'2 2.5
2014-Apr-10 08:33N 46°16' W 001°46'1 1.3
2014-Apr-10 07:24N 46°15' W 001°48'2 1.9
2014-Apr-10 06:33N 46°16' W 001°46'1 1.2
2014-Apr-10 05:33N 46°16' W 001°48'1 0.9
2014-Apr-10 04:33N 46°16' W 001°47'1 0.9
2014-Apr-10 03:33N 46°15' W 001°48'2 2.0
2014-Apr-10 02:34N 46°17' W 001°49'10 9.5
2014-Apr-10 01:33N 46°27' W 001°47'3 3.3
2014-Apr-10 00:33N 46°30' W 001°47'0 0.0
2014-Apr-09 23:34N 46°30' W 001°47'0 0.0
2014-Apr-09 22:34N 46°30' W 001°47'0 0.0
2014-Apr-09 21:34N 46°30' W 001°47'0 0.0
2014-Apr-09 20:34N 46°30' W 001°47'0 0.0
2014-Apr-09 19:34N 46°30' W 001°47'0 0.0
2014-Apr-09 18:33N 46°30' W 001°47'0 0.0
2014-Apr-09 17:34N 46°30' W 001°47'0 0.0
2014-Apr-09 16:33N 46°30' W 001°47'0 0.0
2014-Apr-09 15:34N 46°30' W 001°47'0 0.0
2014-Apr-09 14:34N 46°30' W 001°47'0 0.0
2014-Apr-09 13:33N 46°30' W 001°47'0 0.0
2014-Apr-09 12:34N 46°30' W 001°47'0 0.0
2014-Apr-09 11:33N 46°30' W 001°47'2 1.5
2014-Apr-09 10:33N 46°28' W 001°47'10 9.6
2014-Apr-09 09:33N 46°19' W 001°49'4 3.9
2014-Apr-09 08:33N 46°15' W 001°50'3 2.7
2014-Apr-09 07:33N 46°16' W 001°46'2 1.7
2014-Apr-09 06:33N 46°16' W 001°49'2 1.8
2014-Apr-09 05:33N 46°16' W 001°46'1 0.5
2014-Apr-09 04:33N 46°16' W 001°47'1 0.8
2014-Apr-09 03:33N 46°16' W 001°48'1 1.4
2014-Apr-09 02:33N 46°18' W 001°47'2 1.6
2014-Apr-09 01:33N 46°17' W 001°49'1 0.5
2014-Apr-09 00:33N 46°17' W 001°48'2 1.6
2014-Apr-08 23:34N 46°18' W 001°46'0 0.0
2014-Apr-08 22:33N 46°18' W 001°46'0 0.0
2014-Apr-08 21:34N 46°18' W 001°46'0 0.0
2014-Apr-08 20:34N 46°18' W 001°46'0 0.0
2014-Apr-08 19:33N 46°18' W 001°46'0 0.0
2014-Apr-08 18:34N 46°18' W 001°46'0 0.0
2014-Apr-08 17:34N 46°18' W 001°46'0 0.0
2014-Apr-08 16:34N 46°18' W 001°46'0 0.0
2014-Apr-08 15:33N 46°18' W 001°46'2 2.3
2014-Apr-08 14:34N 46°17' W 001°49'2 1.9
2014-Apr-08 13:29N 46°16' W 001°47'8 7.7
2014-Apr-08 12:29N 46°09' W 001°46'2 0.1
2014-Apr-07 10:05N 46°08' W 001°42'5 9.3
2014-Apr-07 09:33N 46°13' W 001°43'9 9.3
2014-Apr-07 08:33N 46°22' W 001°46'8 8.0
2014-Apr-07 07:33N 46°30' W 001°47'0 0.0
2014-Apr-07 06:33N 46°30' W 001°47'0 0.0
2014-Apr-07 05:33N 46°30' W 001°47'0 0.0
2014-Apr-07 04:33N 46°30' W 001°47'0 0.0
2014-Apr-07 03:33N 46°30' W 001°47'0 0.0
2014-Apr-07 02:34N 46°30' W 001°47'0 0.0
2014-Apr-07 01:34N 46°30' W 001°47'0 0.0
2014-Apr-07 00:33N 46°30' W 001°47'0 0.0
2014-Apr-06 23:34N 46°30' W 001°47'0 0.0
2014-Apr-06 22:34N 46°30' W 001°47'0 0.0
2014-Apr-06 21:34N 46°30' W 001°47'0 0.0
2014-Apr-06 20:33N 46°30' W 001°47'0 0.0
2014-Apr-06 19:33N 46°30' W 001°47'0 0.0
2014-Apr-06 18:34N 46°30' W 001°47'0 0.0
2014-Apr-06 17:34N 46°30' W 001°47'0 0.0
2014-Apr-06 16:34N 46°30' W 001°47'0 0.0
2014-Apr-06 15:34N 46°30' W 001°47'0 0.0
2014-Apr-06 14:34N 46°30' W 001°47'0 0.0
2014-Apr-06 13:34N 46°30' W 001°47'0 0.0
2014-Apr-06 12:33N 46°30' W 001°47'0 0.0
2014-Apr-06 11:34N 46°30' W 001°47'3 3.0
2014-Apr-06 10:34N 46°29' W 001°51'7 7.0
2014-Apr-06 09:34N 46°29' W 002°01'2 1.6
2014-Apr-06 08:33N 46°30' W 002°03'1 1.3
2014-Apr-06 07:34N 46°29' W 002°01'0 0.3
2014-Apr-06 06:33N 46°30' W 002°01'1 1.3
2014-Apr-06 05:33N 46°31' W 002°02'2 2.0
2014-Apr-06 04:33N 46°29' W 002°01'1 0.6
2014-Apr-06 03:33N 46°30' W 002°01'0 0.4
2014-Apr-06 02:34N 46°30' W 002°01'3 2.7
2014-Apr-06 01:33N 46°29' W 001°58'7 7.4
2014-Apr-06 00:33N 46°30' W 001°47'0 0.0
2014-Apr-05 23:33N 46°30' W 001°47'0 0.0
2014-Apr-05 22:34N 46°30' W 001°47'0 0.0
2014-Apr-05 21:33N 46°30' W 001°47'0 0.0
2014-Apr-05 20:34N 46°30' W 001°47'0 0.0
2014-Apr-05 19:34N 46°30' W 001°47'0 0.0
2014-Apr-05 18:33N 46°30' W 001°47'0 0.0
2014-Apr-05 17:34N 46°30' W 001°47'0 0.0
2014-Apr-05 16:34N 46°30' W 001°47'0 0.0
2014-Apr-05 15:34N 46°30' W 001°47'0 0.0
2014-Apr-05 14:34N 46°30' W 001°47'0 0.0
2014-Apr-05 13:34N 46°30' W 001°47'2 2.3
2014-Apr-05 12:34N 46°28' W 001°50'9 8.7
2014-Apr-05 11:34N 46°30' W 002°02'1 1.4
2014-Apr-05 10:33N 46°29' W 002°00'2 2.2
2014-Apr-05 09:34N 46°31' W 001°58'2 2.1
2014-Apr-05 08:34N 46°29' W 001°56'1 1.2
2014-Apr-05 07:33N 46°30' W 001°57'0 0.3
2014-Apr-05 06:33N 46°30' W 001°58'1 0.5
2014-Apr-05 05:34N 46°29' W 001°58'1 0.8
2014-Apr-05 04:33N 46°28' W 001°58'0 0.2
2014-Apr-05 03:33N 46°29' W 001°58'1 0.9
2014-Apr-05 02:33N 46°29' W 001°58'2 2.1
2014-Apr-05 01:33N 46°27' W 001°57'7 7.3
2014-Apr-05 00:33N 46°30' W 001°47'0 0.0
2014-Apr-04 23:34N 46°30' W 001°47'0 0.0
2014-Apr-04 22:34N 46°30' W 001°47'0 0.0
2014-Apr-04 21:34N 46°30' W 001°47'0 0.0
2014-Apr-04 20:33N 46°30' W 001°47'0 0.0
2014-Apr-04 19:34N 46°30' W 001°47'0 0.0
2014-Apr-04 18:33N 46°30' W 001°47'0 0.0
2014-Apr-04 17:33N 46°30' W 001°47'0 0.0
2014-Apr-04 16:34N 46°30' W 001°47'0 0.0
2014-Apr-04 15:34N 46°30' W 001°47'0 0.0
2014-Apr-04 14:34N 46°30' W 001°47'0 0.0
2014-Apr-04 13:34N 46°30' W 001°47'2 1.7
2014-Apr-04 12:34N 46°28' W 001°48'7 7.2
2014-Apr-04 11:33N 46°29' W 001°58'2 1.9
2014-Apr-04 10:33N 46°30' W 001°58'2 2.3
2014-Apr-04 09:33N 46°32' W 002°00'2 1.6
2014-Apr-04 08:33N 46°32' W 001°58'1 0.9
2014-Apr-04 07:33N 46°31' W 001°59'1 0.7
2014-Apr-04 06:33N 46°31' W 002°00'1 1.3
2014-Apr-04 05:34N 46°32' W 001°59'1 1.2
2014-Apr-04 04:33N 46°31' W 001°60'1 1.1
2014-Apr-04 03:33N 46°31' W 001°58'3 2.5
2014-Apr-04 02:33N 46°28' W 001°58'6 5.7
2014-Apr-04 01:34N 46°28' W 001°50'2 2.4
2014-Apr-04 00:33N 46°30' W 001°47'0 0.0
2014-Apr-03 23:34N 46°30' W 001°47'0 0.0
2014-Apr-03 22:33N 46°30' W 001°47'0 0.0
2014-Apr-03 21:34N 46°30' W 001°47'0 0.0
2014-Apr-03 20:34N 46°30' W 001°47'0 0.0
2014-Apr-03 19:33N 46°30' W 001°47'0 0.0
2014-Apr-03 18:33N 46°30' W 001°47'0 0.0
2014-Apr-03 17:34N 46°30' W 001°47'0 0.0
2014-Apr-03 16:34N 46°30' W 001°47'0 0.0
2014-Apr-03 15:33N 46°30' W 001°47'0 0.0
2014-Apr-03 14:34N 46°30' W 001°47'0 0.0
2014-Apr-03 13:33N 46°30' W 001°47'0 0.0
2014-Apr-03 12:33N 46°30' W 001°47'0 0.2
2014-Apr-03 11:33N 46°30' W 001°47'6 6.2
2014-Apr-03 10:33N 46°30' W 001°56'3 2.5
2014-Apr-03 09:34N 46°31' W 001°60'3 3.3
2014-Apr-03 08:33N 46°28' W 001°57'1 0.6
2014-Apr-03 07:33N 46°29' W 001°58'3 3.3
2014-Apr-03 06:33N 46°32' W 001°59'  

Dump ship's entire track history

sailing weather and tide predictions

F/V Fleur Des Vagues — FPEJ — position and weather